createdAt,value
2023-01-22T00:01:02.012Z,1.27
2023-01-22T00:03:29.073Z,1.47
2023-01-22T00:05:56.399Z,1.00
2023-01-22T00:08:23.380Z,0.93
2023-01-22T00:10:54.653Z,1.00
2023-01-22T00:13:23.955Z,1.70
2023-01-22T00:15:51.151Z,0.90
2023-01-22T00:18:19.130Z,0.93
2023-01-22T00:20:50.203Z,1.10
2023-01-22T00:23:17.313Z,0.97
2023-01-22T00:25:44.845Z,0.70
2023-01-22T00:28:12.873Z,0.73
2023-01-22T00:30:40.215Z,1.10
2023-01-22T00:33:09.120Z,0.80
2023-01-22T00:35:36.022Z,1.17
2023-01-22T00:38:03.913Z,1.20
2023-01-22T00:40:32.428Z,1.40
2023-01-22T00:42:59.278Z,1.00
2023-01-22T00:45:26.188Z,0.80
2023-01-22T00:47:53.597Z,1.00
2023-01-22T00:50:20.945Z,1.10
2023-01-22T00:52:47.882Z,0.80
2023-01-22T00:55:14.840Z,1.10
2023-01-22T00:57:41.795Z,1.07
2023-01-22T01:00:09.526Z,0.80
2023-01-22T01:02:56.373Z,0.87
2023-01-22T01:05:23.249Z,0.80
2023-01-22T01:07:51.391Z,0.80
2023-01-22T01:10:18.847Z,0.80
2023-01-22T01:12:45.893Z,1.47
2023-01-22T01:15:13.035Z,1.30
2023-01-22T01:17:39.996Z,1.30
2023-01-22T01:20:07.536Z,1.10
2023-01-22T01:22:34.447Z,1.33
2023-01-22T01:25:01.394Z,2.03
2023-01-22T01:27:31.710Z,1.60
2023-01-22T01:29:59.078Z,2.00
2023-01-22T01:32:26.137Z,2.37
2023-01-22T01:34:53.296Z,2.60
2023-01-22T01:37:20.267Z,2.77
2023-01-22T01:39:48.046Z,4.10
2023-01-22T01:42:14.955Z,3.67
2023-01-22T01:44:42.777Z,3.90
2023-01-22T01:47:30.697Z,3.83
2023-01-22T01:49:57.598Z,5.23
2023-01-22T01:52:24.517Z,4.80
2023-01-22T01:54:56.091Z,4.00
2023-01-22T01:57:29.368Z,3.47
2023-01-22T01:59:59.083Z,3.57
2023-01-22T02:02:26.050Z,3.40
2023-01-22T02:04:54.233Z,3.70
2023-01-22T02:07:21.184Z,3.43
2023-01-22T02:09:48.327Z,3.90
2023-01-22T02:12:15.595Z,3.93
2023-01-22T02:14:45.982Z,3.30
2023-01-22T02:17:32.719Z,3.50
2023-01-22T02:19:59.771Z,3.63
2023-01-22T02:22:32.671Z,3.87
2023-01-22T02:25:00.903Z,4.33
2023-01-22T02:27:30.394Z,4.53
2023-01-22T02:29:57.289Z,5.03
2023-01-22T02:32:24.287Z,5.50
2023-01-22T02:34:52.710Z,5.80
2023-01-22T02:37:19.753Z,5.53
2023-01-22T02:39:48.247Z,5.47
2023-01-22T02:42:15.522Z,5.43
2023-01-22T02:44:43.509Z,6.10
2023-01-22T02:47:12.083Z,6.30
2023-01-22T02:49:39.030Z,6.63
2023-01-22T02:52:06.336Z,6.27
2023-01-22T02:54:34.328Z,6.83
2023-01-22T02:57:01.281Z,6.10
2023-01-22T02:59:28.959Z,6.23
2023-01-22T03:01:57.258Z,6.33
2023-01-22T03:04:27.252Z,6.53
2023-01-22T03:06:54.153Z,7.17
2023-01-22T03:09:23.501Z,7.10
2023-01-22T03:11:51.099Z,6.93
2023-01-22T03:14:44.558Z,7.43
2023-01-22T03:17:30.120Z,7.10
2023-01-22T03:20:17.747Z,6.60
2023-01-22T03:22:45.009Z,6.40
2023-01-22T03:25:12.494Z,5.10
2023-01-22T03:28:01.223Z,5.60
2023-01-22T03:30:29.294Z,6.27
2023-01-22T03:32:56.221Z,7.43
2023-01-22T03:35:23.752Z,6.23
2023-01-22T03:38:06.982Z,6.37
2023-01-22T03:40:34.484Z,6.80
2023-01-22T03:43:01.563Z,6.50
2023-01-22T03:45:28.514Z,6.30
2023-01-22T03:47:55.441Z,7.83
2023-01-22T03:50:29.581Z,7.47
2023-01-22T03:52:58.064Z,7.30
2023-01-22T03:55:25.671Z,7.90
2023-01-22T03:57:54.007Z,8.20
2023-01-22T04:00:21.363Z,8.40
2023-01-22T04:02:50.494Z,7.90
2023-01-22T04:05:21.584Z,8.70
2023-01-22T04:07:50.800Z,8.73
2023-01-22T04:10:21.539Z,9.03
2023-01-22T04:12:49.205Z,9.90
2023-01-22T04:15:19.423Z,9.33
2023-01-22T04:17:47.407Z,8.73
2023-01-22T04:20:50.212Z,8.60
2023-01-22T04:23:21.188Z,8.27
2023-01-22T04:25:50.103Z,7.23
2023-01-22T04:28:18.149Z,6.77
2023-01-22T04:30:50.984Z,6.10
2023-01-22T04:33:30.504Z,6.97
2023-01-22T04:36:10.509Z,6.97
2023-01-22T04:38:37.798Z,6.07
2023-01-22T04:41:04.902Z,5.57
2023-01-22T04:43:32.600Z,4.53
2023-01-22T04:45:59.820Z,4.10
2023-01-22T04:48:30.836Z,4.07
2023-01-22T04:50:57.735Z,4.20
2023-01-22T04:53:28.124Z,4.50
2023-01-22T04:55:55.591Z,4.63
2023-01-22T04:58:22.646Z,6.37
2023-01-22T05:00:51.339Z,6.50
2023-01-22T05:03:18.386Z,8.13
2023-01-22T05:05:45.355Z,7.67
2023-01-22T05:08:12.472Z,6.67
2023-01-22T05:10:39.579Z,5.57
2023-01-22T05:13:08.972Z,4.70
2023-01-22T05:15:37.983Z,5.70
2023-01-22T05:18:09.008Z,4.53
2023-01-22T05:20:38.371Z,5.50
2023-01-22T05:23:05.789Z,6.60
2023-01-22T05:25:33.010Z,7.03
2023-01-22T05:28:00.921Z,7.37
2023-01-22T05:30:41.833Z,6.87
2023-01-22T05:33:16.297Z,6.77
2023-01-22T05:35:43.291Z,7.20
2023-01-22T05:38:11.356Z,7.17
2023-01-22T05:40:38.835Z,7.40
2023-01-22T05:43:05.823Z,8.40
2023-01-22T05:45:33.197Z,12.47
2023-01-22T05:48:29.473Z,9.53
2023-01-22T05:51:07.998Z,9.73
2023-01-22T05:53:35.640Z,8.57
2023-01-22T05:56:04.674Z,8.43
2023-01-22T05:58:35.562Z,7.83
2023-01-22T06:01:03.262Z,8.57
2023-01-22T06:03:35.795Z,9.27
2023-01-22T06:06:07.933Z,10.13
2023-01-22T06:08:34.980Z,11.10
2023-01-22T06:11:11.797Z,12.10
2023-01-22T06:13:39.831Z,12.67
2023-01-22T06:16:15.012Z,11.70
2023-01-22T06:19:12.548Z,10.13
2023-01-22T06:21:44.160Z,9.43
2023-01-22T06:24:12.106Z,9.20
2023-01-22T06:26:39.019Z,9.33
2023-01-22T06:29:08.577Z,8.80
2023-01-22T06:31:35.994Z,10.03
2023-01-22T06:34:06.726Z,10.27
2023-01-22T06:36:33.697Z,14.23
2023-01-22T06:39:00.815Z,13.27
2023-01-22T06:41:42.669Z,11.57
2023-01-22T06:44:12.603Z,11.47
2023-01-22T06:46:39.907Z,11.63
2023-01-22T06:49:10.778Z,10.10
2023-01-22T06:51:39.766Z,10.73
2023-01-22T06:54:07.227Z,11.17
2023-01-22T06:56:34.546Z,12.53
2023-01-22T06:59:04.209Z,10.23
2023-01-22T07:01:31.254Z,12.03
2023-01-22T07:03:58.317Z,11.87
2023-01-22T07:06:25.494Z,13.13
2023-01-22T07:08:52.429Z,15.67
2023-01-22T07:11:19.517Z,18.67
2023-01-22T07:13:46.414Z,17.97
2023-01-22T07:16:13.900Z,16.97
2023-01-22T07:18:40.886Z,13.60
2023-01-22T07:21:07.881Z,15.03
2023-01-22T07:23:34.805Z,15.07
2023-01-22T07:26:01.677Z,14.00
2023-01-22T07:28:28.689Z,14.80
2023-01-22T07:30:56.961Z,17.27
2023-01-22T07:33:24.096Z,22.67
2023-01-22T07:35:57.601Z,24.23
2023-01-22T07:38:30.523Z,25.40
2023-01-22T07:41:02.235Z,20.17
2023-01-22T07:43:30.464Z,19.87
2023-01-22T07:46:04.298Z,21.13
2023-01-22T07:48:31.328Z,19.47
2023-01-22T07:51:06.578Z,21.23
2023-01-22T07:53:34.305Z,20.97
2023-01-22T07:56:02.391Z,21.50
2023-01-22T07:58:29.436Z,24.83
2023-01-22T08:00:56.323Z,21.77
2023-01-22T08:03:23.497Z,25.63
2023-01-22T08:05:50.441Z,27.60
2023-01-22T08:08:20.566Z,24.43
2023-01-22T08:10:47.745Z,24.37
2023-01-22T08:13:15.091Z,21.77
2023-01-22T08:15:42.765Z,22.10
2023-01-22T08:18:11.402Z,19.83
2023-01-22T08:20:38.543Z,21.03
2023-01-22T08:23:05.427Z,20.40
2023-01-22T08:25:32.309Z,19.33
2023-01-22T08:28:02.873Z,15.70
2023-01-22T08:30:29.735Z,16.53
2023-01-22T08:32:56.606Z,15.97
2023-01-22T08:35:24.547Z,14.27
2023-01-22T08:37:51.599Z,14.03
2023-01-22T08:40:18.755Z,15.70
2023-01-22T08:42:51.425Z,16.37
2023-01-22T08:45:18.751Z,16.87
2023-01-22T08:47:45.771Z,19.10
2023-01-22T08:50:12.673Z,19.97
2023-01-22T08:52:39.657Z,19.97
2023-01-22T08:55:09.923Z,20.10
2023-01-22T08:57:37.319Z,21.07
2023-01-22T09:00:05.321Z,18.37
2023-01-22T09:02:32.607Z,16.13
2023-01-22T09:04:59.518Z,19.37
2023-01-22T09:07:26.496Z,17.13
2023-01-22T09:09:53.353Z,15.13
2023-01-22T09:12:20.387Z,9.70
2023-01-22T09:14:47.257Z,10.90
2023-01-22T09:17:14.203Z,10.27
2023-01-22T09:19:41.293Z,11.43
2023-01-22T09:22:08.155Z,12.33
2023-01-22T09:24:35.166Z,12.33
2023-01-22T09:27:02.158Z,17.17
2023-01-22T09:29:29.162Z,20.20
2023-01-22T09:31:56.871Z,20.87
2023-01-22T09:34:23.861Z,21.50
2023-01-22T09:36:50.952Z,19.40
2023-01-22T09:39:18.291Z,20.33
2023-01-22T09:41:52.501Z,18.37
2023-01-22T09:44:32.191Z,20.80
2023-01-22T09:47:11.722Z,24.47
2023-01-22T09:50:02.291Z,25.37
2023-01-22T09:52:34.759Z,19.57
2023-01-22T10:01:46.884Z,17.00
2023-01-22T10:04:31.258Z,17.77
2023-01-22T10:07:01.404Z,26.67
2023-01-22T10:09:31.283Z,31.57
2023-01-22T10:12:00.135Z,31.83
2023-01-22T10:14:30.218Z,27.43
2023-01-22T10:17:01.679Z,26.20
2023-01-22T10:19:51.481Z,19.90
2023-01-22T10:22:24.386Z,13.57
2023-01-22T10:24:52.262Z,16.07
2023-01-22T10:27:41.298Z,16.60
2023-01-22T10:30:14.305Z,11.43
2023-01-22T10:32:41.271Z,8.03
2023-01-22T10:35:11.424Z,7.80
2023-01-22T10:37:49.669Z,8.60
2023-01-22T10:40:27.422Z,6.20
2023-01-22T10:43:13.827Z,5.47
2023-01-22T10:46:01.811Z,6.87
2023-01-22T10:48:28.969Z,6.27
2023-01-22T10:51:05.456Z,4.77
2023-01-22T10:53:44.081Z,4.33
2023-01-22T10:56:29.456Z,3.40
2023-01-22T10:58:59.985Z,2.97
2023-01-22T11:01:36.558Z,3.17
2023-01-22T11:04:24.483Z,1.97
2023-01-22T11:06:56.278Z,2.50
2023-01-22T11:09:31.780Z,2.80
2023-01-22T11:12:08.399Z,3.20
2023-01-22T11:14:38.135Z,2.97
2023-01-22T11:17:31.306Z,2.80
2023-01-22T11:20:03.188Z,3.73
2023-01-22T11:22:40.862Z,2.93
2023-01-22T11:25:11.475Z,3.73
2023-01-22T11:27:50.631Z,4.90
2023-01-22T11:30:38.272Z,5.90
2023-01-22T11:33:20.541Z,6.27
2023-01-22T11:35:54.078Z,5.57
2023-01-22T11:38:30.100Z,5.20
2023-01-22T11:41:00.387Z,4.23
2023-01-22T11:43:43.485Z,3.80
2023-01-22T11:46:28.715Z,4.73
2023-01-22T11:49:08.244Z,5.30
2023-01-22T11:51:51.030Z,5.83
2023-01-22T11:54:35.955Z,11.17
2023-01-22T11:57:02.815Z,10.03
2023-01-22T11:59:51.617Z,10.33
2023-01-22T12:02:49.679Z,8.97
2023-01-22T12:05:46.162Z,9.70
2023-01-22T12:08:31.210Z,7.30
2023-01-22T12:11:32.700Z,8.23
2023-01-22T12:14:24.638Z,5.40
2023-01-22T12:17:35.898Z,3.63
2023-01-22T12:20:24.554Z,3.10
2023-01-22T12:23:19.588Z,2.40
2023-01-22T12:25:59.219Z,2.70
2023-01-22T12:28:45.763Z,2.30
2023-01-22T12:31:41.276Z,3.07
2023-01-22T12:34:27.828Z,2.47
2023-01-22T12:36:55.819Z,2.30
2023-01-22T12:39:57.607Z,2.30
2023-01-22T12:42:32.578Z,2.60
2023-01-22T12:45:25.356Z,2.60
2023-01-22T12:48:10.222Z,3.77
2023-01-22T12:50:49.285Z,2.50
2023-01-22T12:53:34.870Z,2.40
2023-01-22T12:56:08.655Z,2.97
2023-01-22T12:58:38.477Z,3.77
2023-01-22T13:01:13.717Z,3.00
2023-01-22T13:03:42.151Z,3.67
2023-01-22T13:06:21.542Z,4.33
2023-01-22T13:08:48.646Z,4.57
2023-01-22T13:11:38.305Z,5.80
2023-01-22T13:14:26.803Z,5.63
2023-01-22T13:17:00.139Z,5.00
2023-01-22T13:19:30.955Z,4.63
2023-01-22T13:22:00.020Z,5.37
2023-01-22T13:24:27.023Z,5.90
2023-01-22T13:27:01.907Z,6.20
2023-01-22T13:29:37.102Z,6.97
2023-01-22T13:32:15.414Z,4.80
2023-01-22T13:34:42.332Z,7.20
2023-01-22T13:37:23.863Z,4.67
2023-01-22T13:39:51.002Z,4.17
2023-01-22T13:42:18.829Z,5.37
2023-01-22T13:44:50.337Z,4.40
2023-01-22T13:47:33.521Z,6.80
2023-01-22T13:50:02.021Z,6.10
2023-01-22T13:52:33.113Z,5.70
2023-01-22T13:55:05.704Z,5.50
2023-01-22T13:57:32.662Z,4.87
2023-01-22T14:00:01.985Z,5.13
2023-01-22T14:02:34.667Z,4.33
2023-01-22T14:05:02.275Z,4.50
2023-01-22T14:07:39.614Z,4.93
2023-01-22T14:10:23.375Z,5.10
2023-01-22T14:13:04.748Z,4.10
2023-01-22T14:15:32.638Z,3.80
2023-01-22T14:18:13.526Z,4.23
2023-01-22T14:20:42.031Z,4.30
2023-01-22T14:23:09.111Z,5.93
2023-01-22T14:25:46.434Z,6.07
2023-01-22T14:28:14.678Z,5.33
2023-01-22T14:30:41.729Z,5.70
2023-01-22T14:33:14.996Z,6.10
2023-01-22T14:35:41.972Z,4.87
2023-01-22T14:38:08.982Z,4.43
2023-01-22T14:40:36.003Z,5.30
2023-01-22T14:43:03.608Z,4.77
2023-01-22T14:45:30.609Z,5.13
2023-01-22T14:47:57.626Z,6.10
2023-01-22T14:50:24.811Z,4.13
2023-01-22T14:52:52.048Z,5.53
2023-01-22T14:55:19.840Z,6.97
2023-01-22T14:57:47.087Z,8.10
2023-01-22T15:00:17.251Z,7.50
2023-01-22T15:02:44.997Z,8.63
2023-01-22T15:05:12.159Z,10.30
2023-01-22T15:07:39.004Z,11.87
2023-01-22T15:10:08.208Z,10.07
2023-01-22T15:12:36.416Z,9.70
2023-01-22T15:15:03.768Z,9.80
2023-01-22T15:17:31.423Z,10.33
2023-01-22T15:19:58.364Z,13.63
2023-01-22T15:22:25.412Z,7.80
2023-01-22T15:24:52.276Z,10.23
2023-01-22T15:27:19.293Z,12.27
2023-01-22T15:29:50.776Z,13.60
2023-01-22T15:32:18.023Z,16.67
2023-01-22T15:34:44.973Z,16.97
2023-01-22T15:37:13.824Z,19.90
2023-01-22T15:39:41.974Z,23.70
2023-01-22T15:42:09.427Z,24.23
2023-01-22T15:44:37.616Z,24.80
2023-01-22T15:47:06.639Z,20.23
2023-01-22T15:49:34.903Z,22.67
2023-01-22T15:52:01.844Z,19.80
2023-01-22T15:54:28.956Z,14.90
2023-01-22T15:56:56.106Z,16.13
2023-01-22T15:59:23.139Z,13.13
2023-01-22T16:01:50.126Z,18.30
2023-01-22T16:04:17.001Z,19.07
2023-01-22T16:06:44.653Z,19.70
2023-01-22T16:09:11.761Z,24.83
2023-01-22T16:11:38.785Z,27.10
2023-01-22T16:14:05.797Z,26.23
2023-01-22T16:16:36.463Z,28.40
2023-01-22T16:19:05.736Z,30.53
2023-01-22T16:21:33.031Z,28.57
2023-01-22T16:24:01.511Z,25.67
2023-01-22T16:26:31.567Z,17.80
2023-01-22T16:29:00.379Z,16.70
2023-01-22T16:31:30.153Z,19.77
2023-01-22T16:34:06.489Z,25.13
2023-01-22T16:36:33.611Z,21.73
2023-01-22T16:39:01.072Z,19.63
2023-01-22T16:41:33.462Z,17.00
2023-01-22T16:44:16.203Z,15.43
2023-01-22T16:46:45.783Z,14.67
2023-01-22T16:49:18.517Z,17.47
2023-01-22T16:51:54.126Z,23.07
2023-01-22T16:54:34.168Z,22.50
2023-01-22T16:57:03.760Z,23.77
2023-01-22T16:59:32.260Z,28.30
2023-01-22T17:02:00.997Z,25.77
2023-01-22T17:04:28.595Z,30.40
2023-01-22T17:06:57.608Z,31.70
2023-01-22T17:09:30.347Z,28.83
2023-01-22T17:12:00.154Z,26.10
2023-01-22T17:14:29.937Z,26.33
2023-01-22T17:16:58.263Z,19.17
2023-01-22T17:19:27.521Z,17.87
2023-01-22T17:21:56.777Z,18.87
2023-01-22T17:24:24.312Z,21.03
2023-01-22T17:26:52.008Z,22.17
2023-01-22T17:29:20.081Z,23.40
2023-01-22T17:31:48.782Z,20.13
2023-01-22T17:34:16.251Z,21.83
2023-01-22T17:36:43.401Z,20.90
2023-01-22T17:39:15.941Z,25.10
2023-01-22T17:41:43.653Z,22.67
2023-01-22T17:44:11.346Z,38.80
2023-01-22T17:46:38.478Z,36.03
2023-01-22T17:49:05.809Z,37.57
2023-01-22T17:51:34.778Z,40.10
2023-01-22T17:54:03.429Z,40.83
2023-01-22T17:56:39.343Z,36.23
2023-01-22T17:59:07.358Z,38.20
2023-01-22T18:01:36.798Z,36.93
2023-01-22T18:04:06.972Z,40.93
2023-01-22T18:06:34.754Z,39.00
2023-01-22T18:09:03.114Z,48.63
2023-01-22T18:11:30.964Z,36.10
2023-01-22T18:14:06.466Z,33.63
2023-01-22T18:16:36.315Z,33.73
2023-01-22T18:19:05.643Z,33.87
2023-01-22T18:21:33.485Z,32.93
2023-01-22T18:24:02.113Z,32.83
2023-01-22T18:26:29.600Z,31.13
2023-01-22T18:28:58.013Z,30.60
2023-01-22T18:31:27.218Z,30.07
2023-01-22T18:33:56.394Z,30.00
2023-01-22T18:36:26.189Z,33.47
2023-01-22T18:38:53.151Z,36.83
2023-01-22T18:41:23.988Z,41.63
2023-01-22T18:43:56.280Z,56.20
2023-01-22T18:46:25.369Z,49.07
2023-01-22T18:48:54.970Z,39.00
2023-01-22T18:51:23.120Z,42.17
2023-01-22T18:53:50.345Z,39.40
2023-01-22T18:56:17.276Z,28.37
2023-01-22T18:58:45.180Z,32.70
2023-01-22T19:01:18.048Z,32.00
2023-01-22T19:03:49.348Z,30.33
2023-01-22T19:06:19.360Z,24.40
2023-01-22T19:08:56.924Z,22.13
2023-01-22T19:11:25.364Z,24.07
2023-01-22T19:13:54.610Z,24.63
2023-01-22T19:16:22.815Z,22.13
2023-01-22T19:18:58.169Z,23.60
2023-01-22T19:21:26.968Z,23.47
2023-01-22T19:23:57.968Z,23.97
2023-01-22T19:26:31.445Z,23.90
2023-01-22T19:29:01.658Z,26.40
2023-01-22T19:31:32.624Z,24.93
2023-01-22T19:34:01.993Z,27.37
2023-01-22T19:36:32.353Z,27.47
2023-01-22T19:39:22.608Z,27.00
2023-01-22T19:42:19.396Z,28.53
2023-01-22T19:44:47.204Z,27.17
2023-01-22T19:47:15.518Z,31.43
2023-01-22T19:49:42.694Z,31.30
2023-01-22T19:52:10.158Z,28.03
2023-01-22T19:54:40.931Z,29.60
2023-01-22T19:57:08.278Z,30.60
2023-01-22T19:59:35.447Z,30.43
2023-01-22T20:02:02.714Z,33.40
2023-01-22T20:04:33.763Z,30.97
2023-01-22T20:07:04.604Z,30.73
2023-01-22T20:09:34.252Z,31.33
2023-01-22T20:12:01.593Z,35.13
2023-01-22T20:14:31.156Z,37.90
2023-01-22T20:16:59.477Z,41.23
2023-01-22T20:19:30.646Z,41.23
2023-01-22T20:21:59.758Z,44.83
2023-01-22T20:24:28.315Z,50.50
2023-01-22T20:27:02.592Z,50.40
2023-01-22T20:29:33.872Z,48.30
2023-01-22T20:32:01.106Z,47.77
2023-01-22T20:34:28.195Z,44.87
2023-01-22T20:36:55.326Z,44.43
2023-01-22T20:39:23.095Z,38.93
2023-01-22T20:41:50.314Z,32.50
2023-01-22T20:44:17.880Z,31.03
2023-01-22T20:46:45.670Z,31.03
2023-01-22T20:49:12.978Z,32.60
2023-01-22T20:51:41.997Z,33.70
2023-01-22T20:54:09.152Z,26.63
2023-01-22T20:56:36.269Z,27.43
2023-01-22T20:59:10.431Z,27.23
2023-01-22T21:01:37.994Z,27.50
2023-01-22T21:04:05.617Z,24.97
2023-01-22T21:06:35.383Z,26.03
2023-01-22T21:09:03.768Z,24.87
2023-01-22T21:11:33.159Z,24.33
2023-01-22T21:14:02.191Z,24.83
2023-01-22T21:16:35.592Z,24.70
2023-01-22T21:19:11.385Z,24.17
2023-01-22T21:21:38.635Z,24.37
2023-01-22T21:24:06.144Z,21.97
2023-01-22T21:26:33.856Z,20.17
2023-01-22T21:29:11.975Z,18.50
2023-01-22T21:31:39.195Z,15.43
2023-01-22T21:34:08.759Z,15.53
2023-01-22T21:36:50.156Z,15.37
2023-01-22T21:39:22.006Z,14.87
2023-01-22T21:41:49.141Z,15.30
2023-01-22T21:44:37.736Z,14.30
2023-01-22T21:47:05.672Z,14.67
2023-01-22T21:49:35.323Z,14.37
2023-01-22T21:52:12.213Z,13.33
2023-01-22T21:54:42.628Z,15.57
2023-01-22T21:57:14.362Z,14.13
2023-01-22T21:59:41.959Z,15.67
2023-01-22T22:02:14.728Z,13.57
2023-01-22T22:04:42.511Z,15.73
2023-01-22T22:07:09.565Z,15.53
2023-01-22T22:09:37.439Z,16.50
2023-01-22T22:12:05.471Z,14.97
2023-01-22T22:14:33.259Z,16.03
2023-01-22T22:17:00.493Z,15.10
2023-01-22T22:19:29.039Z,15.90
2023-01-22T22:21:56.604Z,17.73
2023-01-22T22:24:23.591Z,16.40
2023-01-22T22:26:50.701Z,16.97
2023-01-22T22:29:17.742Z,16.20
2023-01-22T22:31:44.786Z,17.20
2023-01-22T22:34:11.785Z,18.60
2023-01-22T22:36:39.133Z,17.67
2023-01-22T22:39:06.732Z,17.47
2023-01-22T22:41:36.283Z,17.50
2023-01-22T22:44:04.302Z,16.50
2023-01-22T22:46:34.089Z,17.63
2023-01-22T22:49:02.154Z,17.03
2023-01-22T22:51:38.310Z,17.13
2023-01-22T22:54:08.000Z,16.00
2023-01-22T22:56:35.309Z,18.83
2023-01-22T22:59:03.085Z,20.27
2023-01-22T23:01:35.590Z,17.63
2023-01-22T23:04:02.907Z,17.77
2023-01-22T23:06:32.548Z,14.43
2023-01-22T23:09:11.041Z,17.57
2023-01-22T23:11:38.630Z,16.80
2023-01-22T23:14:06.013Z,17.43
2023-01-22T23:16:36.700Z,17.73
2023-01-22T23:19:07.602Z,14.67
2023-01-22T23:21:36.508Z,15.10
2023-01-22T23:24:03.728Z,15.03
2023-01-22T23:26:31.119Z,13.30
2023-01-22T23:29:02.113Z,14.43
2023-01-22T23:31:31.892Z,14.57
2023-01-22T23:34:00.579Z,15.20
2023-01-22T23:36:27.702Z,13.00
2023-01-22T23:38:55.181Z,16.43
2023-01-22T23:41:23.313Z,13.37
2023-01-22T23:43:50.689Z,13.97
2023-01-22T23:46:20.665Z,14.00
2023-01-22T23:48:48.290Z,14.20
2023-01-22T23:51:15.941Z,13.67
2023-01-22T23:53:47.336Z,14.80
2023-01-22T23:56:15.498Z,16.13
2023-01-22T23:58:42.804Z,14.47
